Aviation Digital Data Service (ADDS)

Output produced by METARs form (0533 UTC 26 February 2017)
found at http://aviationweather.gov/adds/metars/
 
KLEB 260521Z 2606/2706 34006KT P6SM BKN025 
     FM261200 29012G20KT P6SM BKN035 
     FM262300 25005KT P6SM SCT040